sensor_id;sensor_type;location;lat;lon;timestamp;temperature;humidity
11764;DHT22;5939;56.522;14.950;2023-11-19T00:02:14;1.80;99.90
11764;DHT22;5939;56.522;14.950;2023-11-19T00:04:39;1.80;99.90
11764;DHT22;5939;56.522;14.950;2023-11-19T00:07:05;1.80;99.90
11764;DHT22;5939;56.522;14.950;2023-11-19T00:09:36;1.80;99.90
11764;DHT22;5939;56.522;14.950;2023-11-19T00:12:06;1.80;99.90
11764;DHT22;5939;56.522;14.950;2023-11-19T00:14:32;1.80;99.90
11764;DHT22;5939;56.522;14.950;2023-11-19T00:16:58;1.70;99.90
11764;DHT22;5939;56.522;14.950;2023-11-19T00:19:24;1.70;99.90
11764;DHT22;5939;56.522;14.950;2023-11-19T00:21:49;1.70;99.90
11764;DHT22;5939;56.522;14.950;2023-11-19T00:24:15;1.70;99.90
11764;DHT22;5939;56.522;14.950;2023-11-19T00:26:42;1.70;99.90
11764;DHT22;5939;56.522;14.950;2023-11-19T00:29:08;1.70;99.90
11764;DHT22;5939;56.522;14.950;2023-11-19T00:31:34;1.70;99.90
11764;DHT22;5939;56.522;14.950;2023-11-19T00:33:59;1.70;99.90
11764;DHT22;5939;56.522;14.950;2023-11-19T00:36:25;1.70;99.90
11764;DHT22;5939;56.522;14.950;2023-11-19T00:38:51;1.70;99.90
11764;DHT22;5939;56.522;14.950;2023-11-19T00:41:18;1.70;99.90
11764;DHT22;5939;56.522;14.950;2023-11-19T00:43:44;1.70;99.90
11764;DHT22;5939;56.522;14.950;2023-11-19T00:46:10;1.70;99.90
11764;DHT22;5939;56.522;14.950;2023-11-19T00:48:39;1.70;99.90
11764;DHT22;5939;56.522;14.950;2023-11-19T00:51:05;1.70;99.90
11764;DHT22;5939;56.522;14.950;2023-11-19T00:53:31;1.70;99.90
11764;DHT22;5939;56.522;14.950;2023-11-19T00:55:57;1.70;99.90
11764;DHT22;5939;56.522;14.950;2023-11-19T00:58:23;1.80;99.90
11764;DHT22;5939;56.522;14.950;2023-11-19T01:00:49;1.80;99.90
11764;DHT22;5939;56.522;14.950;2023-11-19T01:03:14;1.80;99.90
11764;DHT22;5939;56.522;14.950;2023-11-19T01:05:41;1.80;99.90
11764;DHT22;5939;56.522;14.950;2023-11-19T01:08:07;1.80;99.90
11764;DHT22;5939;56.522;14.950;2023-11-19T01:10:33;1.80;99.90
11764;DHT22;5939;56.522;14.950;2023-11-19T01:12:59;1.80;99.90
11764;DHT22;5939;56.522;14.950;2023-11-19T01:15:25;1.80;99.90
11764;DHT22;5939;56.522;14.950;2023-11-19T01:17:51;1.80;99.90
11764;DHT22;5939;56.522;14.950;2023-11-19T01:20:17;1.80;99.90
11764;DHT22;5939;56.522;14.950;2023-11-19T01:22:43;1.80;99.90
11764;DHT22;5939;56.522;14.950;2023-11-19T01:25:09;1.80;99.90
11764;DHT22;5939;56.522;14.950;2023-11-19T01:27:34;1.80;99.90
11764;DHT22;5939;56.522;14.950;2023-11-19T01:30:03;1.80;99.90
11764;DHT22;5939;56.522;14.950;2023-11-19T01:32:31;1.80;99.90
11764;DHT22;5939;56.522;14.950;2023-11-19T01:34:57;1.80;99.90
11764;DHT22;5939;56.522;14.950;2023-11-19T01:37:23;1.80;99.90
11764;DHT22;5939;56.522;14.950;2023-11-19T01:39:49;1.80;99.90
11764;DHT22;5939;56.522;14.950;2023-11-19T01:42:14;1.80;99.90
11764;DHT22;5939;56.522;14.950;2023-11-19T01:44:41;1.80;99.90
11764;DHT22;5939;56.522;14.950;2023-11-19T01:47:08;1.90;99.90
11764;DHT22;5939;56.522;14.950;2023-11-19T01:49:34;1.80;99.90
11764;DHT22;5939;56.522;14.950;2023-11-19T01:52:00;1.80;99.90
11764;DHT22;5939;56.522;14.950;2023-11-19T01:54:26;1.80;99.90
11764;DHT22;5939;56.522;14.950;2023-11-19T01:56:56;1.80;99.90
11764;DHT22;5939;56.522;14.950;2023-11-19T01:59:23;1.80;99.90
11764;DHT22;5939;56.522;14.950;2023-11-19T02:01:53;1.80;99.90
11764;DHT22;5939;56.522;14.950;2023-11-19T02:04:19;1.80;99.90
11764;DHT22;5939;56.522;14.950;2023-11-19T02:06:46;1.80;99.90
11764;DHT22;5939;56.522;14.950;2023-11-19T02:09:13;1.80;99.90
11764;DHT22;5939;56.522;14.950;2023-11-19T02:11:40;1.80;99.90
11764;DHT22;5939;56.522;14.950;2023-11-19T02:14:06;1.80;99.90
11764;DHT22;5939;56.522;14.950;2023-11-19T02:16:32;1.80;99.90
11764;DHT22;5939;56.522;14.950;2023-11-19T02:18:58;1.80;99.90
11764;DHT22;5939;56.522;14.950;2023-11-19T02:21:23;1.80;99.90
11764;DHT22;5939;56.522;14.950;2023-11-19T02:23:49;1.80;99.90
11764;DHT22;5939;56.522;14.950;2023-11-19T02:26:28;1.80;99.90
11764;DHT22;5939;56.522;14.950;2023-11-19T02:28:55;1.80;99.90
11764;DHT22;5939;56.522;14.950;2023-11-19T02:31:20;1.90;99.90
11764;DHT22;5939;56.522;14.950;2023-11-19T02:33:48;1.90;99.90
11764;DHT22;5939;56.522;14.950;2023-11-19T02:36:15;1.90;99.90
11764;DHT22;5939;56.522;14.950;2023-11-19T02:38:42;1.90;99.90
11764;DHT22;5939;56.522;14.950;2023-11-19T02:41:08;1.90;99.90
11764;DHT22;5939;56.522;14.950;2023-11-19T02:43:36;1.90;99.90
11764;DHT22;5939;56.522;14.950;2023-11-19T02:46:05;1.80;99.90
11764;DHT22;5939;56.522;14.950;2023-11-19T02:48:35;1.90;99.90
11764;DHT22;5939;56.522;14.950;2023-11-19T02:51:03;1.90;99.90
11764;DHT22;5939;56.522;14.950;2023-11-19T02:53:30;1.90;99.90
11764;DHT22;5939;56.522;14.950;2023-11-19T02:55:56;1.90;99.90
11764;DHT22;5939;56.522;14.950;2023-11-19T02:58:28;1.90;99.90
11764;DHT22;5939;56.522;14.950;2023-11-19T03:00:55;1.90;99.90
11764;DHT22;5939;56.522;14.950;2023-11-19T03:03:25;1.90;99.90
11764;DHT22;5939;56.522;14.950;2023-11-19T03:05:54;1.90;99.90
11764;DHT22;5939;56.522;14.950;2023-11-19T03:08:20;1.90;99.90
11764;DHT22;5939;56.522;14.950;2023-11-19T03:10:47;1.90;99.90
11764;DHT22;5939;56.522;14.950;2023-11-19T03:13:14;1.90;99.90
11764;DHT22;5939;56.522;14.950;2023-11-19T03:15:40;1.90;99.90
11764;DHT22;5939;56.522;14.950;2023-11-19T03:18:07;1.90;99.90
11764;DHT22;5939;56.522;14.950;2023-11-19T03:20:32;1.90;99.90
11764;DHT22;5939;56.522;14.950;2023-11-19T03:22:59;1.90;99.90
11764;DHT22;5939;56.522;14.950;2023-11-19T03:25:27;1.90;99.90
11764;DHT22;5939;56.522;14.950;2023-11-19T03:27:59;1.90;99.90
11764;DHT22;5939;56.522;14.950;2023-11-19T03:30:24;1.90;99.90
11764;DHT22;5939;56.522;14.950;2023-11-19T03:32:50;1.90;99.90
11764;DHT22;5939;56.522;14.950;2023-11-19T03:35:16;1.90;99.90
11764;DHT22;5939;56.522;14.950;2023-11-19T03:37:41;1.90;99.90
11764;DHT22;5939;56.522;14.950;2023-11-19T03:40:09;1.90;99.90
11764;DHT22;5939;56.522;14.950;2023-11-19T03:42:35;1.90;99.90
11764;DHT22;5939;56.522;14.950;2023-11-19T03:45:01;2.00;99.90
11764;DHT22;5939;56.522;14.950;2023-11-19T03:47:29;2.00;99.90
11764;DHT22;5939;56.522;14.950;2023-11-19T03:49:54;2.00;99.90
11764;DHT22;5939;56.522;14.950;2023-11-19T03:52:20;2.00;99.90
11764;DHT22;5939;56.522;14.950;2023-11-19T03:54:46;2.00;99.90
11764;DHT22;5939;56.522;14.950;2023-11-19T03:57:12;2.00;99.90
11764;DHT22;5939;56.522;14.950;2023-11-19T03:59:39;2.00;99.90
11764;DHT22;5939;56.522;14.950;2023-11-19T04:02:04;2.00;99.90
11764;DHT22;5939;56.522;14.950;2023-11-19T04:04:30;2.00;99.90
11764;DHT22;5939;56.522;14.950;2023-11-19T04:06:56;2.00;99.90
11764;DHT22;5939;56.522;14.950;2023-11-19T04:09:22;2.00;99.90
11764;DHT22;5939;56.522;14.950;2023-11-19T04:11:48;2.00;99.90
11764;DHT22;5939;56.522;14.950;2023-11-19T04:14:13;2.00;99.90
11764;DHT22;5939;56.522;14.950;2023-11-19T04:16:40;2.00;99.90
11764;DHT22;5939;56.522;14.950;2023-11-19T04:19:06;2.00;99.90
11764;DHT22;5939;56.522;14.950;2023-11-19T04:21:32;2.00;99.90
11764;DHT22;5939;56.522;14.950;2023-11-19T04:23:58;2.00;99.90
11764;DHT22;5939;56.522;14.950;2023-11-19T04:26:24;2.00;99.90
11764;DHT22;5939;56.522;14.950;2023-11-19T04:28:50;2.10;99.90
11764;DHT22;5939;56.522;14.950;2023-11-19T04:31:15;2.10;99.90
11764;DHT22;5939;56.522;14.950;2023-11-19T04:33:42;2.10;99.90
11764;DHT22;5939;56.522;14.950;2023-11-19T04:36:09;2.10;99.90
11764;DHT22;5939;56.522;14.950;2023-11-19T04:38:35;2.10;99.90
11764;DHT22;5939;56.522;14.950;2023-11-19T04:41:01;2.10;99.90
11764;DHT22;5939;56.522;14.950;2023-11-19T04:43:27;2.00;99.90
11764;DHT22;5939;56.522;14.950;2023-11-19T04:45:52;2.10;99.90
11764;DHT22;5939;56.522;14.950;2023-11-19T04:48:18;2.10;99.90
11764;DHT22;5939;56.522;14.950;2023-11-19T04:50:43;2.10;99.90
11764;DHT22;5939;56.522;14.950;2023-11-19T04:53:09;2.10;99.90
11764;DHT22;5939;56.522;14.950;2023-11-19T04:55:35;2.10;99.90
11764;DHT22;5939;56.522;14.950;2023-11-19T04:58:01;2.10;99.90
11764;DHT22;5939;56.522;14.950;2023-11-19T05:00:26;2.10;99.90
11764;DHT22;5939;56.522;14.950;2023-11-19T05:02:52;2.10;99.90
11764;DHT22;5939;56.522;14.950;2023-11-19T05:05:18;2.10;99.90
11764;DHT22;5939;56.522;14.950;2023-11-19T05:07:44;2.10;99.90
11764;DHT22;5939;56.522;14.950;2023-11-19T05:10:09;2.10;99.90
11764;DHT22;5939;56.522;14.950;2023-11-19T05:12:35;2.10;99.90
11764;DHT22;5939;56.522;14.950;2023-11-19T05:15:01;2.10;99.90
11764;DHT22;5939;56.522;14.950;2023-11-19T05:17:26;2.10;99.90
11764;DHT22;5939;56.522;14.950;2023-11-19T05:19:52;2.10;99.90
11764;DHT22;5939;56.522;14.950;2023-11-19T05:22:18;2.20;99.90
11764;DHT22;5939;56.522;14.950;2023-11-19T05:24:43;2.10;99.90
11764;DHT22;5939;56.522;14.950;2023-11-19T05:27:09;2.10;99.90
11764;DHT22;5939;56.522;14.950;2023-11-19T05:29:37;2.20;99.90
11764;DHT22;5939;56.522;14.950;2023-11-19T05:32:05;2.20;99.90
11764;DHT22;5939;56.522;14.950;2023-11-19T05:34:30;2.20;99.90
11764;DHT22;5939;56.522;14.950;2023-11-19T05:36:56;2.20;99.90
11764;DHT22;5939;56.522;14.950;2023-11-19T05:39:23;2.10;99.90
11764;DHT22;5939;56.522;14.950;2023-11-19T05:41:50;2.20;99.90
11764;DHT22;5939;56.522;14.950;2023-11-19T05:44:15;2.20;99.90
11764;DHT22;5939;56.522;14.950;2023-11-19T05:46:42;2.20;99.90
11764;DHT22;5939;56.522;14.950;2023-11-19T05:49:11;2.20;99.90
11764;DHT22;5939;56.522;14.950;2023-11-19T05:51:40;2.20;99.90
11764;DHT22;5939;56.522;14.950;2023-11-19T05:54:08;2.20;99.90
11764;DHT22;5939;56.522;14.950;2023-11-19T05:56:34;2.20;99.90
11764;DHT22;5939;56.522;14.950;2023-11-19T05:59:00;2.20;99.90
11764;DHT22;5939;56.522;14.950;2023-11-19T06:01:35;2.20;99.90
11764;DHT22;5939;56.522;14.950;2023-11-19T06:04:02;2.20;99.90
11764;DHT22;5939;56.522;14.950;2023-11-19T06:06:29;2.20;99.90
11764;DHT22;5939;56.522;14.950;2023-11-19T06:08:54;2.20;99.90
11764;DHT22;5939;56.522;14.950;2023-11-19T06:11:20;2.20;99.90
11764;DHT22;5939;56.522;14.950;2023-11-19T06:13:46;2.20;99.90
11764;DHT22;5939;56.522;14.950;2023-11-19T06:16:15;2.20;99.90
11764;DHT22;5939;56.522;14.950;2023-11-19T06:18:41;2.20;99.90
11764;DHT22;5939;56.522;14.950;2023-11-19T06:21:07;2.20;99.90
11764;DHT22;5939;56.522;14.950;2023-11-19T06:23:32;2.20;99.90
11764;DHT22;5939;56.522;14.950;2023-11-19T06:25:58;2.30;99.90
11764;DHT22;5939;56.522;14.950;2023-11-19T06:28:24;2.30;99.90
11764;DHT22;5939;56.522;14.950;2023-11-19T06:30:50;2.20;99.90
11764;DHT22;5939;56.522;14.950;2023-11-19T06:33:16;2.20;99.90
11764;DHT22;5939;56.522;14.950;2023-11-19T06:35:41;2.30;99.90
11764;DHT22;5939;56.522;14.950;2023-11-19T06:38:07;2.30;99.90
11764;DHT22;5939;56.522;14.950;2023-11-19T06:40:33;2.30;99.90
11764;DHT22;5939;56.522;14.950;2023-11-19T06:43:00;2.30;99.90
11764;DHT22;5939;56.522;14.950;2023-11-19T06:45:26;2.30;99.90
11764;DHT22;5939;56.522;14.950;2023-11-19T06:47:52;2.30;99.90
11764;DHT22;5939;56.522;14.950;2023-11-19T06:50:17;2.30;99.90
11764;DHT22;5939;56.522;14.950;2023-11-19T06:52:44;2.30;99.90
11764;DHT22;5939;56.522;14.950;2023-11-19T06:55:10;2.30;99.90
11764;DHT22;5939;56.522;14.950;2023-11-19T06:57:36;2.30;99.90
11764;DHT22;5939;56.522;14.950;2023-11-19T07:00:02;2.30;99.90
11764;DHT22;5939;56.522;14.950;2023-11-19T07:02:31;2.30;99.90
11764;DHT22;5939;56.522;14.950;2023-11-19T07:04:56;2.30;99.90
11764;DHT22;5939;56.522;14.950;2023-11-19T07:07:22;2.30;99.90
11764;DHT22;5939;56.522;14.950;2023-11-19T07:09:48;2.30;99.90
11764;DHT22;5939;56.522;14.950;2023-11-19T07:12:13;2.30;99.90
11764;DHT22;5939;56.522;14.950;2023-11-19T07:14:40;2.30;99.90
11764;DHT22;5939;56.522;14.950;2023-11-19T07:17:07;2.30;99.90
11764;DHT22;5939;56.522;14.950;2023-11-19T07:19:34;2.30;99.90
11764;DHT22;5939;56.522;14.950;2023-11-19T07:22:01;2.40;99.90
11764;DHT22;5939;56.522;14.950;2023-11-19T07:24:27;2.30;99.90
11764;DHT22;5939;56.522;14.950;2023-11-19T07:26:54;2.30;99.90
11764;DHT22;5939;56.522;14.950;2023-11-19T07:29:20;2.40;99.90
11764;DHT22;5939;56.522;14.950;2023-11-19T07:31:48;2.40;99.90
11764;DHT22;5939;56.522;14.950;2023-11-19T07:34:14;2.40;99.90
11764;DHT22;5939;56.522;14.950;2023-11-19T07:36:40;2.40;99.90
11764;DHT22;5939;56.522;14.950;2023-11-19T07:39:06;2.40;99.90
11764;DHT22;5939;56.522;14.950;2023-11-19T07:41:32;2.40;99.90
11764;DHT22;5939;56.522;14.950;2023-11-19T07:43:58;2.40;99.90
11764;DHT22;5939;56.522;14.950;2023-11-19T07:46:23;2.40;99.90
11764;DHT22;5939;56.522;14.950;2023-11-19T07:48:50;2.40;99.90
11764;DHT22;5939;56.522;14.950;2023-11-19T07:51:16;2.40;99.90
11764;DHT22;5939;56.522;14.950;2023-11-19T07:53:42;2.40;99.90
11764;DHT22;5939;56.522;14.950;2023-11-19T07:56:08;2.40;99.90
11764;DHT22;5939;56.522;14.950;2023-11-19T07:58:34;2.40;99.90
11764;DHT22;5939;56.522;14.950;2023-11-19T08:01:00;2.40;99.90
11764;DHT22;5939;56.522;14.950;2023-11-19T08:03:27;2.40;99.90
11764;DHT22;5939;56.522;14.950;2023-11-19T08:05:55;2.40;99.90
11764;DHT22;5939;56.522;14.950;2023-11-19T08:08:22;2.50;99.90
11764;DHT22;5939;56.522;14.950;2023-11-19T08:10:47;2.50;99.90
11764;DHT22;5939;56.522;14.950;2023-11-19T08:13:14;2.50;99.90
11764;DHT22;5939;56.522;14.950;2023-11-19T08:15:39;2.50;99.90
11764;DHT22;5939;56.522;14.950;2023-11-19T08:18:06;2.50;99.90
11764;DHT22;5939;56.522;14.950;2023-11-19T08:20:32;2.50;99.90
11764;DHT22;5939;56.522;14.950;2023-11-19T08:22:58;2.50;99.90
11764;DHT22;5939;56.522;14.950;2023-11-19T08:25:24;2.50;99.90
11764;DHT22;5939;56.522;14.950;2023-11-19T08:27:50;2.50;99.90
11764;DHT22;5939;56.522;14.950;2023-11-19T08:30:15;2.50;99.90
11764;DHT22;5939;56.522;14.950;2023-11-19T08:32:41;2.50;99.90
11764;DHT22;5939;56.522;14.950;2023-11-19T08:35:07;2.50;99.90
11764;DHT22;5939;56.522;14.950;2023-11-19T08:37:33;2.50;99.90
11764;DHT22;5939;56.522;14.950;2023-11-19T08:40:02;2.50;99.90
11764;DHT22;5939;56.522;14.950;2023-11-19T08:42:29;2.60;99.90
11764;DHT22;5939;56.522;14.950;2023-11-19T08:44:55;2.60;99.90
11764;DHT22;5939;56.522;14.950;2023-11-19T08:47:20;2.60;99.90
11764;DHT22;5939;56.522;14.950;2023-11-19T08:49:50;2.60;99.90
11764;DHT22;5939;56.522;14.950;2023-11-19T08:52:15;2.60;99.90
11764;DHT22;5939;56.522;14.950;2023-11-19T08:54:43;2.60;99.90
11764;DHT22;5939;56.522;14.950;2023-11-19T08:57:09;2.60;99.90
11764;DHT22;5939;56.522;14.950;2023-11-19T08:59:35;2.60;99.90
11764;DHT22;5939;56.522;14.950;2023-11-19T09:02:00;2.60;99.90
11764;DHT22;5939;56.522;14.950;2023-11-19T09:04:27;2.60;99.90
11764;DHT22;5939;56.522;14.950;2023-11-19T09:06:53;2.60;99.90
11764;DHT22;5939;56.522;14.950;2023-11-19T09:09:18;2.60;99.90
11764;DHT22;5939;56.522;14.950;2023-11-19T09:11:44;2.70;99.90
11764;DHT22;5939;56.522;14.950;2023-11-19T09:14:10;2.70;99.90
11764;DHT22;5939;56.522;14.950;2023-11-19T09:16:35;2.70;99.90
11764;DHT22;5939;56.522;14.950;2023-11-19T09:19:01;2.70;99.90
11764;DHT22;5939;56.522;14.950;2023-11-19T09:21:28;2.70;99.90
11764;DHT22;5939;56.522;14.950;2023-11-19T09:23:55;2.70;99.90
11764;DHT22;5939;56.522;14.950;2023-11-19T09:26:20;2.70;99.90
11764;DHT22;5939;56.522;14.950;2023-11-19T09:28:46;2.70;99.90
11764;DHT22;5939;56.522;14.950;2023-11-19T09:31:16;2.70;99.90
11764;DHT22;5939;56.522;14.950;2023-11-19T09:33:42;2.70;99.90
11764;DHT22;5939;56.522;14.950;2023-11-19T09:36:08;2.70;99.90
11764;DHT22;5939;56.522;14.950;2023-11-19T09:38:34;2.70;99.90
11764;DHT22;5939;56.522;14.950;2023-11-19T09:41:07;2.70;99.90
11764;DHT22;5939;56.522;14.950;2023-11-19T09:43:39;2.80;99.90
11764;DHT22;5939;56.522;14.950;2023-11-19T09:46:09;2.70;99.90
11764;DHT22;5939;56.522;14.950;2023-11-19T09:48:39;2.80;99.90
11764;DHT22;5939;56.522;14.950;2023-11-19T09:51:08;2.80;99.90
11764;DHT22;5939;56.522;14.950;2023-11-19T09:53:35;2.80;99.90
11764;DHT22;5939;56.522;14.950;2023-11-19T09:56:02;2.80;99.90
11764;DHT22;5939;56.522;14.950;2023-11-19T09:58:29;2.80;99.90
11764;DHT22;5939;56.522;14.950;2023-11-19T10:00:56;2.80;99.90
11764;DHT22;5939;56.522;14.950;2023-11-19T10:03:25;2.80;99.90
11764;DHT22;5939;56.522;14.950;2023-11-19T10:05:53;2.80;99.90
11764;DHT22;5939;56.522;14.950;2023-11-19T10:08:20;2.90;99.90
11764;DHT22;5939;56.522;14.950;2023-11-19T10:10:45;2.90;99.90
11764;DHT22;5939;56.522;14.950;2023-11-19T10:13:11;2.90;99.90
11764;DHT22;5939;56.522;14.950;2023-11-19T10:15:37;2.90;99.90
11764;DHT22;5939;56.522;14.950;2023-11-19T10:18:03;2.90;99.90
11764;DHT22;5939;56.522;14.950;2023-11-19T10:20:40;2.90;99.90
11764;DHT22;5939;56.522;14.950;2023-11-19T10:23:06;2.90;99.90
11764;DHT22;5939;56.522;14.950;2023-11-19T10:25:33;3.00;99.90
11764;DHT22;5939;56.522;14.950;2023-11-19T10:27:59;2.90;99.90
11764;DHT22;5939;56.522;14.950;2023-11-19T10:30:27;2.90;99.90
11764;DHT22;5939;56.522;14.950;2023-11-19T10:33:11;3.00;99.90
11764;DHT22;5939;56.522;14.950;2023-11-19T10:35:54;3.00;99.90
11764;DHT22;5939;56.522;14.950;2023-11-19T10:38:22;3.00;99.90
11764;DHT22;5939;56.522;14.950;2023-11-19T10:40:48;3.00;99.90
11764;DHT22;5939;56.522;14.950;2023-11-19T10:43:15;3.00;99.90
11764;DHT22;5939;56.522;14.950;2023-11-19T10:45:40;3.00;99.90
11764;DHT22;5939;56.522;14.950;2023-11-19T10:48:06;3.00;99.90
11764;DHT22;5939;56.522;14.950;2023-11-19T10:50:36;3.00;99.90
11764;DHT22;5939;56.522;14.950;2023-11-19T10:53:03;3.00;99.90
11764;DHT22;5939;56.522;14.950;2023-11-19T10:55:31;3.10;99.90
11764;DHT22;5939;56.522;14.950;2023-11-19T10:58:04;3.10;99.90
11764;DHT22;5939;56.522;14.950;2023-11-19T11:00:37;3.10;99.90
11764;DHT22;5939;56.522;14.950;2023-11-19T11:03:18;3.10;99.90
11764;DHT22;5939;56.522;14.950;2023-11-19T11:05:47;3.10;99.90
11764;DHT22;5939;56.522;14.950;2023-11-19T11:08:13;3.10;99.90
11764;DHT22;5939;56.522;14.950;2023-11-19T11:10:48;3.10;99.90
11764;DHT22;5939;56.522;14.950;2023-11-19T11:13:18;3.10;99.90
11764;DHT22;5939;56.522;14.950;2023-11-19T11:15:45;3.10;99.90
11764;DHT22;5939;56.522;14.950;2023-11-19T11:18:12;3.20;99.90
11764;DHT22;5939;56.522;14.950;2023-11-19T11:20:39;3.20;99.90
11764;DHT22;5939;56.522;14.950;2023-11-19T11:26:21;3.20;99.90
11764;DHT22;5939;56.522;14.950;2023-11-19T11:28:55;3.20;99.90
11764;DHT22;5939;56.522;14.950;2023-11-19T11:34:24;3.20;99.90
11764;DHT22;5939;56.522;14.950;2023-11-19T11:36:56;3.20;99.90
11764;DHT22;5939;56.522;14.950;2023-11-19T11:39:24;3.20;99.90
11764;DHT22;5939;56.522;14.950;2023-11-19T11:45:06;3.20;99.90
11764;DHT22;5939;56.522;14.950;2023-11-19T11:50:15;3.30;99.90
11764;DHT22;5939;56.522;14.950;2023-11-19T11:55:52;3.30;99.90
11764;DHT22;5939;56.522;14.950;2023-11-19T11:58:21;3.30;99.90
11764;DHT22;5939;56.522;14.950;2023-11-19T12:00:48;3.30;99.90
11764;DHT22;5939;56.522;14.950;2023-11-19T12:03:14;3.30;99.90
11764;DHT22;5939;56.522;14.950;2023-11-19T12:05:47;3.30;99.90
11764;DHT22;5939;56.522;14.950;2023-11-19T12:08:14;3.30;99.90
11764;DHT22;5939;56.522;14.950;2023-11-19T12:10:52;3.30;99.90
11764;DHT22;5939;56.522;14.950;2023-11-19T12:13:20;3.30;99.90
11764;DHT22;5939;56.522;14.950;2023-11-19T12:18:26;3.30;99.90
11764;DHT22;5939;56.522;14.950;2023-11-19T12:20:53;3.40;99.90
11764;DHT22;5939;56.522;14.950;2023-11-19T12:23:18;3.40;99.90
11764;DHT22;5939;56.522;14.950;2023-11-19T12:25:44;3.40;99.90
11764;DHT22;5939;56.522;14.950;2023-11-19T12:28:14;3.40;99.90
11764;DHT22;5939;56.522;14.950;2023-11-19T12:30:40;3.40;99.90
11764;DHT22;5939;56.522;14.950;2023-11-19T12:33:09;3.40;99.90
11764;DHT22;5939;56.522;14.950;2023-11-19T12:35:45;3.40;99.90
11764;DHT22;5939;56.522;14.950;2023-11-19T12:38:19;3.40;99.90
11764;DHT22;5939;56.522;14.950;2023-11-19T12:40:46;3.40;99.90
11764;DHT22;5939;56.522;14.950;2023-11-19T12:43:21;3.40;99.90
11764;DHT22;5939;56.522;14.950;2023-11-19T12:45:48;3.40;99.90
11764;DHT22;5939;56.522;14.950;2023-11-19T12:48:13;3.40;99.90
11764;DHT22;5939;56.522;14.950;2023-11-19T12:50:58;3.40;99.90
11764;DHT22;5939;56.522;14.950;2023-11-19T12:53:26;3.40;99.90
11764;DHT22;5939;56.522;14.950;2023-11-19T12:55:53;3.40;99.90
11764;DHT22;5939;56.522;14.950;2023-11-19T12:58:32;3.40;99.90
11764;DHT22;5939;56.522;14.950;2023-11-19T13:01:06;3.40;99.90
11764;DHT22;5939;56.522;14.950;2023-11-19T13:03:36;3.40;99.90
11764;DHT22;5939;56.522;14.950;2023-11-19T13:06:08;3.40;99.90
11764;DHT22;5939;56.522;14.950;2023-11-19T13:08:41;3.40;99.90
11764;DHT22;5939;56.522;14.950;2023-11-19T13:11:07;3.40;99.90
11764;DHT22;5939;56.522;14.950;2023-11-19T13:13:53;3.40;99.90
11764;DHT22;5939;56.522;14.950;2023-11-19T13:16:18;3.40;99.90
11764;DHT22;5939;56.522;14.950;2023-11-19T13:18:44;3.40;99.90
11764;DHT22;5939;56.522;14.950;2023-11-19T13:21:10;3.50;99.90
11764;DHT22;5939;56.522;14.950;2023-11-19T13:23:36;3.40;99.90
11764;DHT22;5939;56.522;14.950;2023-11-19T13:26:01;3.40;99.90
11764;DHT22;5939;56.522;14.950;2023-11-19T13:28:27;3.40;99.90
11764;DHT22;5939;56.522;14.950;2023-11-19T13:30:53;3.40;99.90
11764;DHT22;5939;56.522;14.950;2023-11-19T13:33:18;3.40;99.90
11764;DHT22;5939;56.522;14.950;2023-11-19T13:35:44;3.40;99.90
11764;DHT22;5939;56.522;14.950;2023-11-19T13:38:10;3.40;99.90
11764;DHT22;5939;56.522;14.950;2023-11-19T13:40:36;3.40;99.90
11764;DHT22;5939;56.522;14.950;2023-11-19T13:43:02;3.40;99.90
11764;DHT22;5939;56.522;14.950;2023-11-19T13:45:27;3.40;99.90
11764;DHT22;5939;56.522;14.950;2023-11-19T13:47:53;3.50;99.90
11764;DHT22;5939;56.522;14.950;2023-11-19T13:50:19;3.40;99.90
11764;DHT22;5939;56.522;14.950;2023-11-19T13:52:45;3.40;99.90
11764;DHT22;5939;56.522;14.950;2023-11-19T13:55:13;3.40;99.90
11764;DHT22;5939;56.522;14.950;2023-11-19T13:57:40;3.40;99.90
11764;DHT22;5939;56.522;14.950;2023-11-19T14:00:08;3.40;99.90
11764;DHT22;5939;56.522;14.950;2023-11-19T14:02:45;3.40;99.90
11764;DHT22;5939;56.522;14.950;2023-11-19T14:05:11;3.40;99.90
11764;DHT22;5939;56.522;14.950;2023-11-19T14:07:38;3.40;99.90
11764;DHT22;5939;56.522;14.950;2023-11-19T14:10:04;3.40;99.90
11764;DHT22;5939;56.522;14.950;2023-11-19T14:12:35;3.40;99.90
11764;DHT22;5939;56.522;14.950;2023-11-19T14:15:04;3.40;99.90
11764;DHT22;5939;56.522;14.950;2023-11-19T14:17:32;3.40;99.90
11764;DHT22;5939;56.522;14.950;2023-11-19T14:19:58;3.40;99.90
11764;DHT22;5939;56.522;14.950;2023-11-19T14:22:24;3.40;99.90
11764;DHT22;5939;56.522;14.950;2023-11-19T14:24:50;3.40;99.90
11764;DHT22;5939;56.522;14.950;2023-11-19T14:27:16;3.40;99.90
11764;DHT22;5939;56.522;14.950;2023-11-19T14:29:43;3.40;99.90
11764;DHT22;5939;56.522;14.950;2023-11-19T14:32:10;3.40;99.90
11764;DHT22;5939;56.522;14.950;2023-11-19T14:34:35;3.40;99.90
11764;DHT22;5939;56.522;14.950;2023-11-19T14:37:01;3.40;99.90
11764;DHT22;5939;56.522;14.950;2023-11-19T14:39:27;3.40;99.90
11764;DHT22;5939;56.522;14.950;2023-11-19T14:41:54;4.40;99.90
11764;DHT22;5939;56.522;14.950;2023-11-19T14:44:23;3.40;99.90
11764;DHT22;5939;56.522;14.950;2023-11-19T14:46:49;3.40;99.90
11764;DHT22;5939;56.522;14.950;2023-11-19T14:49:15;3.40;99.90
11764;DHT22;5939;56.522;14.950;2023-11-19T14:51:41;3.40;99.90
11764;DHT22;5939;56.522;14.950;2023-11-19T14:54:06;3.40;99.90
11764;DHT22;5939;56.522;14.950;2023-11-19T14:56:32;3.40;99.90
11764;DHT22;5939;56.522;14.950;2023-11-19T14:58:58;3.40;99.90
11764;DHT22;5939;56.522;14.950;2023-11-19T15:01:24;3.40;99.90
11764;DHT22;5939;56.522;14.950;2023-11-19T15:03:50;3.40;99.90
11764;DHT22;5939;56.522;14.950;2023-11-19T15:06:16;3.40;99.90
11764;DHT22;5939;56.522;14.950;2023-11-19T15:08:41;3.40;99.90
11764;DHT22;5939;56.522;14.950;2023-11-19T15:11:07;3.40;99.90
11764;DHT22;5939;56.522;14.950;2023-11-19T15:13:35;3.40;99.90
11764;DHT22;5939;56.522;14.950;2023-11-19T15:16:03;3.40;99.90
11764;DHT22;5939;56.522;14.950;2023-11-19T15:18:31;3.40;99.90
11764;DHT22;5939;56.522;14.950;2023-11-19T15:20:57;3.40;99.90
11764;DHT22;5939;56.522;14.950;2023-11-19T15:23:22;3.40;99.90
11764;DHT22;5939;56.522;14.950;2023-11-19T15:25:48;3.40;99.90
11764;DHT22;5939;56.522;14.950;2023-11-19T15:28:14;3.40;99.90
11764;DHT22;5939;56.522;14.950;2023-11-19T15:30:40;3.30;99.90
11764;DHT22;5939;56.522;14.950;2023-11-19T15:33:06;3.40;99.90
11764;DHT22;5939;56.522;14.950;2023-11-19T15:35:34;3.40;99.90
11764;DHT22;5939;56.522;14.950;2023-11-19T15:38:00;3.30;99.90
11764;DHT22;5939;56.522;14.950;2023-11-19T15:40:25;3.30;99.90
11764;DHT22;5939;56.522;14.950;2023-11-19T15:42:52;3.40;99.90
11764;DHT22;5939;56.522;14.950;2023-11-19T15:45:20;3.40;99.90
11764;DHT22;5939;56.522;14.950;2023-11-19T15:47:46;3.40;99.90
11764;DHT22;5939;56.522;14.950;2023-11-19T15:50:12;3.40;99.90
11764;DHT22;5939;56.522;14.950;2023-11-19T15:52:38;3.40;99.90
11764;DHT22;5939;56.522;14.950;2023-11-19T15:55:04;3.30;99.90
11764;DHT22;5939;56.522;14.950;2023-11-19T15:57:30;3.30;99.90
11764;DHT22;5939;56.522;14.950;2023-11-19T15:59:56;3.30;99.90
11764;DHT22;5939;56.522;14.950;2023-11-19T16:02:21;3.30;99.90